sensor_id;sensor_type;location;lat;lon;timestamp;temperature;humidity
32348;DHT22;18821;44.800;10.326;2023-01-08T00:00:48;9.00;99.90
32348;DHT22;18821;44.800;10.326;2023-01-08T00:03:15;9.00;99.90
32348;DHT22;18821;44.800;10.326;2023-01-08T00:05:41;8.90;99.90
32348;DHT22;18821;44.800;10.326;2023-01-08T00:08:08;8.90;99.90
32348;DHT22;18821;44.800;10.326;2023-01-08T00:10:35;8.90;99.90
32348;DHT22;18821;44.800;10.326;2023-01-08T00:13:01;8.90;99.90
32348;DHT22;18821;44.800;10.326;2023-01-08T00:15:27;9.00;99.90
32348;DHT22;18821;44.800;10.326;2023-01-08T00:17:55;9.00;99.90
32348;DHT22;18821;44.800;10.326;2023-01-08T00:20:22;9.10;99.90
32348;DHT22;18821;44.800;10.326;2023-01-08T00:22:48;9.00;99.90
32348;DHT22;18821;44.800;10.326;2023-01-08T00:25:15;9.10;99.90
32348;DHT22;18821;44.800;10.326;2023-01-08T00:27:41;9.10;99.90
32348;DHT22;18821;44.800;10.326;2023-01-08T00:30:07;9.00;99.90
32348;DHT22;18821;44.800;10.326;2023-01-08T00:32:34;9.00;99.90
32348;DHT22;18821;44.800;10.326;2023-01-08T00:35:00;9.00;99.90
32348;DHT22;18821;44.800;10.326;2023-01-08T00:37:28;9.00;99.90
32348;DHT22;18821;44.800;10.326;2023-01-08T00:39:54;9.00;99.90
32348;DHT22;18821;44.800;10.326;2023-01-08T00:42:20;8.90;99.90
32348;DHT22;18821;44.800;10.326;2023-01-08T00:44:46;8.90;99.90
32348;DHT22;18821;44.800;10.326;2023-01-08T00:47:12;9.10;99.90
32348;DHT22;18821;44.800;10.326;2023-01-08T00:49:39;8.90;99.90
32348;DHT22;18821;44.800;10.326;2023-01-08T00:52:05;8.90;99.90
32348;DHT22;18821;44.800;10.326;2023-01-08T00:54:30;8.90;99.90
32348;DHT22;18821;44.800;10.326;2023-01-08T00:56:58;8.90;99.90
32348;DHT22;18821;44.800;10.326;2023-01-08T00:59:24;8.90;99.90
32348;DHT22;18821;44.800;10.326;2023-01-08T01:01:49;8.90;99.90
32348;DHT22;18821;44.800;10.326;2023-01-08T01:04:17;8.90;99.90
32348;DHT22;18821;44.800;10.326;2023-01-08T01:06:43;8.90;99.90
32348;DHT22;18821;44.800;10.326;2023-01-08T01:09:10;8.90;99.90
32348;DHT22;18821;44.800;10.326;2023-01-08T01:11:36;8.90;99.90
32348;DHT22;18821;44.800;10.326;2023-01-08T01:14:02;8.90;99.90
32348;DHT22;18821;44.800;10.326;2023-01-08T01:16:28;8.90;99.90
32348;DHT22;18821;44.800;10.326;2023-01-08T01:18:53;8.80;99.90
32348;DHT22;18821;44.800;10.326;2023-01-08T01:21:27;8.90;99.90
32348;DHT22;18821;44.800;10.326;2023-01-08T01:23:55;8.90;99.90
32348;DHT22;18821;44.800;10.326;2023-01-08T01:26:22;8.90;99.90
32348;DHT22;18821;44.800;10.326;2023-01-08T01:28:50;8.90;99.90
32348;DHT22;18821;44.800;10.326;2023-01-08T01:31:17;8.90;99.90
32348;DHT22;18821;44.800;10.326;2023-01-08T01:33:43;8.90;99.90
32348;DHT22;18821;44.800;10.326;2023-01-08T01:36:15;9.00;99.90
32348;DHT22;18821;44.800;10.326;2023-01-08T01:38:43;8.90;99.90
32348;DHT22;18821;44.800;10.326;2023-01-08T01:43:49;9.00;99.90
32348;DHT22;18821;44.800;10.326;2023-01-08T01:46:36;9.10;99.90
32348;DHT22;18821;44.800;10.326;2023-01-08T01:49:09;9.10;99.90
32348;DHT22;18821;44.800;10.326;2023-01-08T01:51:38;9.10;99.90
32348;DHT22;18821;44.800;10.326;2023-01-08T01:54:08;9.10;99.90
32348;DHT22;18821;44.800;10.326;2023-01-08T01:56:36;9.20;99.90
32348;DHT22;18821;44.800;10.326;2023-01-08T01:59:02;9.10;99.90
32348;DHT22;18821;44.800;10.326;2023-01-08T02:01:29;9.10;99.90
32348;DHT22;18821;44.800;10.326;2023-01-08T02:03:56;9.10;99.90
32348;DHT22;18821;44.800;10.326;2023-01-08T02:09:22;9.00;99.90
32348;DHT22;18821;44.800;10.326;2023-01-08T02:12:05;9.10;99.90
32348;DHT22;18821;44.800;10.326;2023-01-08T02:17:36;9.10;99.90
32348;DHT22;18821;44.800;10.326;2023-01-08T02:27:56;9.10;99.90
32348;DHT22;18821;44.800;10.326;2023-01-08T02:30:24;9.10;99.90
32348;DHT22;18821;44.800;10.326;2023-01-08T02:32:50;9.10;99.90
32348;DHT22;18821;44.800;10.326;2023-01-08T02:35:16;9.10;99.90
32348;DHT22;18821;44.800;10.326;2023-01-08T02:37:42;9.10;99.90
32348;DHT22;18821;44.800;10.326;2023-01-08T02:40:29;9.20;99.90
32348;DHT22;18821;44.800;10.326;2023-01-08T02:43:11;9.10;99.90
32348;DHT22;18821;44.800;10.326;2023-01-08T02:45:49;9.00;99.90
32348;DHT22;18821;44.800;10.326;2023-01-08T02:51:32;9.00;99.90
32348;DHT22;18821;44.800;10.326;2023-01-08T02:54:06;9.10;99.90
32348;DHT22;18821;44.800;10.326;2023-01-08T02:56:36;9.10;99.90
32348;DHT22;18821;44.800;10.326;2023-01-08T02:59:06;9.10;99.90
32348;DHT22;18821;44.800;10.326;2023-01-08T03:01:33;9.10;99.90
32348;DHT22;18821;44.800;10.326;2023-01-08T03:04:05;9.10;99.90
32348;DHT22;18821;44.800;10.326;2023-01-08T03:06:32;9.10;99.90
32348;DHT22;18821;44.800;10.326;2023-01-08T03:08:59;9.10;99.90
32348;DHT22;18821;44.800;10.326;2023-01-08T03:11:30;9.10;99.90
32348;DHT22;18821;44.800;10.326;2023-01-08T03:13:59;9.10;99.90
32348;DHT22;18821;44.800;10.326;2023-01-08T03:20:06;9.10;99.90
32348;DHT22;18821;44.800;10.326;2023-01-08T03:22:00;9.10;99.90
32348;DHT22;18821;44.800;10.326;2023-01-08T03:24:31;9.10;99.90
32348;DHT22;18821;44.800;10.326;2023-01-08T03:27:02;9.10;99.90
32348;DHT22;18821;44.800;10.326;2023-01-08T03:29:28;9.20;99.90
32348;DHT22;18821;44.800;10.326;2023-01-08T03:31:59;9.20;99.90
32348;DHT22;18821;44.800;10.326;2023-01-08T03:34:27;9.20;99.90
32348;DHT22;18821;44.800;10.326;2023-01-08T03:36:57;9.20;99.90
32348;DHT22;18821;44.800;10.326;2023-01-08T03:39:28;9.20;99.90
32348;DHT22;18821;44.800;10.326;2023-01-08T03:41:59;9.20;99.90
32348;DHT22;18821;44.800;10.326;2023-01-08T03:44:26;9.20;99.90
32348;DHT22;18821;44.800;10.326;2023-01-08T03:46:53;9.30;99.90
32348;DHT22;18821;44.800;10.326;2023-01-08T03:49:22;9.30;99.90
32348;DHT22;18821;44.800;10.326;2023-01-08T03:51:49;9.30;99.90
32348;DHT22;18821;44.800;10.326;2023-01-08T03:54:18;9.30;99.90
32348;DHT22;18821;44.800;10.326;2023-01-08T03:56:44;9.30;99.90
32348;DHT22;18821;44.800;10.326;2023-01-08T03:59:11;9.30;99.90
32348;DHT22;18821;44.800;10.326;2023-01-08T04:01:37;9.30;99.90
32348;DHT22;18821;44.800;10.326;2023-01-08T04:04:04;9.30;99.90
32348;DHT22;18821;44.800;10.326;2023-01-08T04:06:30;9.40;99.90
32348;DHT22;18821;44.800;10.326;2023-01-08T04:08:56;9.40;99.90
32348;DHT22;18821;44.800;10.326;2023-01-08T04:11:22;9.30;99.90
32348;DHT22;18821;44.800;10.326;2023-01-08T04:13:48;9.40;99.90
32348;DHT22;18821;44.800;10.326;2023-01-08T04:16:15;9.30;99.90
32348;DHT22;18821;44.800;10.326;2023-01-08T04:18:41;9.40;99.90
32348;DHT22;18821;44.800;10.326;2023-01-08T04:21:07;9.40;99.90
32348;DHT22;18821;44.800;10.326;2023-01-08T04:23:33;9.40;99.90
32348;DHT22;18821;44.800;10.326;2023-01-08T04:25:58;9.40;99.90
32348;DHT22;18821;44.800;10.326;2023-01-08T04:28:24;9.30;99.90
32348;DHT22;18821;44.800;10.326;2023-01-08T04:30:50;9.30;99.90
32348;DHT22;18821;44.800;10.326;2023-01-08T04:33:16;9.30;99.90
32348;DHT22;18821;44.800;10.326;2023-01-08T04:35:42;9.20;99.90
32348;DHT22;18821;44.800;10.326;2023-01-08T04:38:08;9.20;99.90
32348;DHT22;18821;44.800;10.326;2023-01-08T04:40:34;9.20;99.90
32348;DHT22;18821;44.800;10.326;2023-01-08T04:43:00;9.20;99.90
32348;DHT22;18821;44.800;10.326;2023-01-08T04:45:26;9.20;99.90
32348;DHT22;18821;44.800;10.326;2023-01-08T04:47:56;9.10;99.90
32348;DHT22;18821;44.800;10.326;2023-01-08T04:50:22;9.10;99.90
32348;DHT22;18821;44.800;10.326;2023-01-08T04:52:48;9.10;99.90
32348;DHT22;18821;44.800;10.326;2023-01-08T04:55:14;9.10;99.90
32348;DHT22;18821;44.800;10.326;2023-01-08T04:57:40;9.10;99.90
32348;DHT22;18821;44.800;10.326;2023-01-08T05:00:06;9.20;99.90
32348;DHT22;18821;44.800;10.326;2023-01-08T05:02:32;9.20;99.90
32348;DHT22;18821;44.800;10.326;2023-01-08T05:04:58;9.20;99.90
32348;DHT22;18821;44.800;10.326;2023-01-08T05:07:24;9.20;99.90
32348;DHT22;18821;44.800;10.326;2023-01-08T05:09:50;9.20;99.90
32348;DHT22;18821;44.800;10.326;2023-01-08T05:12:16;9.20;99.90
32348;DHT22;18821;44.800;10.326;2023-01-08T05:14:42;9.20;99.90
32348;DHT22;18821;44.800;10.326;2023-01-08T05:17:08;9.10;99.90
32348;DHT22;18821;44.800;10.326;2023-01-08T05:19:34;9.10;99.90
32348;DHT22;18821;44.800;10.326;2023-01-08T05:22:00;9.10;99.90
32348;DHT22;18821;44.800;10.326;2023-01-08T05:24:26;9.10;99.90
32348;DHT22;18821;44.800;10.326;2023-01-08T05:26:52;9.10;99.90
32348;DHT22;18821;44.800;10.326;2023-01-08T05:29:18;9.00;99.90
32348;DHT22;18821;44.800;10.326;2023-01-08T05:31:44;9.00;99.90
32348;DHT22;18821;44.800;10.326;2023-01-08T05:34:10;9.00;99.90
32348;DHT22;18821;44.800;10.326;2023-01-08T05:36:36;8.90;99.90
32348;DHT22;18821;44.800;10.326;2023-01-08T05:39:02;8.90;99.90
32348;DHT22;18821;44.800;10.326;2023-01-08T05:41:28;8.90;99.90
32348;DHT22;18821;44.800;10.326;2023-01-08T05:43:54;8.90;99.90
32348;DHT22;18821;44.800;10.326;2023-01-08T05:46:20;8.80;99.90
32348;DHT22;18821;44.800;10.326;2023-01-08T05:48:46;8.80;99.90
32348;DHT22;18821;44.800;10.326;2023-01-08T05:51:12;8.80;99.90
32348;DHT22;18821;44.800;10.326;2023-01-08T05:53:38;8.80;99.90
32348;DHT22;18821;44.800;10.326;2023-01-08T05:56:06;8.80;99.90
32348;DHT22;18821;44.800;10.326;2023-01-08T05:58:33;8.80;99.90
32348;DHT22;18821;44.800;10.326;2023-01-08T06:01:08;8.90;99.90
32348;DHT22;18821;44.800;10.326;2023-01-08T06:03:35;8.80;99.90
32348;DHT22;18821;44.800;10.326;2023-01-08T06:06:02;8.80;99.90
32348;DHT22;18821;44.800;10.326;2023-01-08T06:08:29;8.80;99.90
32348;DHT22;18821;44.800;10.326;2023-01-08T06:11:01;8.80;99.90
32348;DHT22;18821;44.800;10.326;2023-01-08T06:13:28;8.80;99.90
32348;DHT22;18821;44.800;10.326;2023-01-08T06:15:54;8.80;99.90
32348;DHT22;18821;44.800;10.326;2023-01-08T06:18:19;8.80;99.90
32348;DHT22;18821;44.800;10.326;2023-01-08T06:20:45;8.80;99.90
32348;DHT22;18821;44.800;10.326;2023-01-08T06:23:11;8.70;99.90
32348;DHT22;18821;44.800;10.326;2023-01-08T06:25:37;8.70;99.90
32348;DHT22;18821;44.800;10.326;2023-01-08T06:28:04;8.70;99.90
32348;DHT22;18821;44.800;10.326;2023-01-08T06:30:30;8.80;99.90
32348;DHT22;18821;44.800;10.326;2023-01-08T06:32:57;8.80;99.90
32348;DHT22;18821;44.800;10.326;2023-01-08T06:35:23;8.80;99.90
32348;DHT22;18821;44.800;10.326;2023-01-08T06:37:50;8.90;99.90
32348;DHT22;18821;44.800;10.326;2023-01-08T06:40:16;8.90;99.90
32348;DHT22;18821;44.800;10.326;2023-01-08T06:42:42;8.90;99.90
32348;DHT22;18821;44.800;10.326;2023-01-08T06:45:09;8.90;99.90
32348;DHT22;18821;44.800;10.326;2023-01-08T06:47:35;8.80;99.90
32348;DHT22;18821;44.800;10.326;2023-01-08T06:50:01;8.90;99.90
32348;DHT22;18821;44.800;10.326;2023-01-08T06:52:28;8.90;99.90
32348;DHT22;18821;44.800;10.326;2023-01-08T06:54:53;8.80;99.90
32348;DHT22;18821;44.800;10.326;2023-01-08T06:57:19;8.80;99.90
32348;DHT22;18821;44.800;10.326;2023-01-08T06:59:45;8.80;99.90
32348;DHT22;18821;44.800;10.326;2023-01-08T07:02:13;8.80;99.90
32348;DHT22;18821;44.800;10.326;2023-01-08T07:04:39;8.90;99.90
32348;DHT22;18821;44.800;10.326;2023-01-08T07:07:05;8.80;99.90
32348;DHT22;18821;44.800;10.326;2023-01-08T07:09:35;8.80;99.90
32348;DHT22;18821;44.800;10.326;2023-01-08T07:12:01;8.70;99.90
32348;DHT22;18821;44.800;10.326;2023-01-08T07:14:27;8.70;99.90
32348;DHT22;18821;44.800;10.326;2023-01-08T07:16:53;8.70;99.90
32348;DHT22;18821;44.800;10.326;2023-01-08T07:19:19;8.70;99.90
32348;DHT22;18821;44.800;10.326;2023-01-08T07:21:45;8.70;99.90
32348;DHT22;18821;44.800;10.326;2023-01-08T07:24:11;8.70;99.90
32348;DHT22;18821;44.800;10.326;2023-01-08T07:26:37;8.70;99.90
32348;DHT22;18821;44.800;10.326;2023-01-08T07:29:04;8.70;99.90
32348;DHT22;18821;44.800;10.326;2023-01-08T07:31:31;8.70;99.90
32348;DHT22;18821;44.800;10.326;2023-01-08T07:33:57;8.70;99.90
32348;DHT22;18821;44.800;10.326;2023-01-08T07:36:24;8.70;99.90
32348;DHT22;18821;44.800;10.326;2023-01-08T07:38:50;8.70;99.90
32348;DHT22;18821;44.800;10.326;2023-01-08T07:41:17;8.60;99.90
32348;DHT22;18821;44.800;10.326;2023-01-08T07:43:43;8.50;99.90
32348;DHT22;18821;44.800;10.326;2023-01-08T07:46:11;8.50;99.90
32348;DHT22;18821;44.800;10.326;2023-01-08T07:48:37;8.50;99.90
32348;DHT22;18821;44.800;10.326;2023-01-08T07:51:05;8.50;99.90
32348;DHT22;18821;44.800;10.326;2023-01-08T07:53:31;8.50;99.90
32348;DHT22;18821;44.800;10.326;2023-01-08T07:56:02;8.50;99.90
32348;DHT22;18821;44.800;10.326;2023-01-08T07:58:28;8.60;99.90
32348;DHT22;18821;44.800;10.326;2023-01-08T08:00:55;8.50;99.90
32348;DHT22;18821;44.800;10.326;2023-01-08T08:03:21;8.50;99.90
32348;DHT22;18821;44.800;10.326;2023-01-08T08:05:47;8.50;99.90
32348;DHT22;18821;44.800;10.326;2023-01-08T08:08:13;8.60;99.90
32348;DHT22;18821;44.800;10.326;2023-01-08T08:10:40;8.70;99.90
32348;DHT22;18821;44.800;10.326;2023-01-08T08:13:07;8.70;99.90
32348;DHT22;18821;44.800;10.326;2023-01-08T08:15:34;8.80;99.90
32348;DHT22;18821;44.800;10.326;2023-01-08T08:18:00;8.80;99.90
32348;DHT22;18821;44.800;10.326;2023-01-08T08:20:27;8.80;99.90
32348;DHT22;18821;44.800;10.326;2023-01-08T08:23:07;8.80;99.90
32348;DHT22;18821;44.800;10.326;2023-01-08T08:25:33;8.80;99.90
32348;DHT22;18821;44.800;10.326;2023-01-08T08:28:00;8.90;99.90
32348;DHT22;18821;44.800;10.326;2023-01-08T08:30:28;8.90;99.90
32348;DHT22;18821;44.800;10.326;2023-01-08T08:32:54;8.90;99.90
32348;DHT22;18821;44.800;10.326;2023-01-08T08:35:22;8.90;99.90
32348;DHT22;18821;44.800;10.326;2023-01-08T08:37:48;8.80;99.90
32348;DHT22;18821;44.800;10.326;2023-01-08T08:40:14;8.90;99.90
32348;DHT22;18821;44.800;10.326;2023-01-08T08:42:40;8.80;99.90
32348;DHT22;18821;44.800;10.326;2023-01-08T08:45:07;8.70;99.90
32348;DHT22;18821;44.800;10.326;2023-01-08T08:47:33;8.70;99.90
32348;DHT22;18821;44.800;10.326;2023-01-08T08:49:59;8.70;99.90
32348;DHT22;18821;44.800;10.326;2023-01-08T08:52:24;8.70;99.90
32348;DHT22;18821;44.800;10.326;2023-01-08T08:54:50;8.70;99.90
32348;DHT22;18821;44.800;10.326;2023-01-08T08:57:16;8.80;99.90
32348;DHT22;18821;44.800;10.326;2023-01-08T08:59:42;8.90;99.90
32348;DHT22;18821;44.800;10.326;2023-01-08T09:02:09;8.90;99.90
32348;DHT22;18821;44.800;10.326;2023-01-08T09:04:36;8.90;99.90
32348;DHT22;18821;44.800;10.326;2023-01-08T09:07:02;8.90;99.90
32348;DHT22;18821;44.800;10.326;2023-01-08T09:09:28;8.90;99.90
32348;DHT22;18821;44.800;10.326;2023-01-08T09:11:54;8.90;99.90
32348;DHT22;18821;44.800;10.326;2023-01-08T09:14:20;8.80;99.90
32348;DHT22;18821;44.800;10.326;2023-01-08T09:16:46;8.80;99.90
32348;DHT22;18821;44.800;10.326;2023-01-08T09:19:12;8.80;99.90
32348;DHT22;18821;44.800;10.326;2023-01-08T09:21:38;8.70;99.90
32348;DHT22;18821;44.800;10.326;2023-01-08T09:24:05;8.70;99.90
32348;DHT22;18821;44.800;10.326;2023-01-08T09:26:31;8.80;99.90
32348;DHT22;18821;44.800;10.326;2023-01-08T09:28:57;8.80;99.90
32348;DHT22;18821;44.800;10.326;2023-01-08T09:31:24;8.80;99.90
32348;DHT22;18821;44.800;10.326;2023-01-08T09:33:50;8.80;99.90
32348;DHT22;18821;44.800;10.326;2023-01-08T09:36:17;8.80;99.90
32348;DHT22;18821;44.800;10.326;2023-01-08T09:38:43;8.90;99.90
32348;DHT22;18821;44.800;10.326;2023-01-08T09:41:15;8.90;99.90
32348;DHT22;18821;44.800;10.326;2023-01-08T09:43:44;8.90;99.90
32348;DHT22;18821;44.800;10.326;2023-01-08T09:46:13;8.90;99.90
32348;DHT22;18821;44.800;10.326;2023-01-08T09:48:41;8.90;99.90
32348;DHT22;18821;44.800;10.326;2023-01-08T09:51:15;9.00;99.90
32348;DHT22;18821;44.800;10.326;2023-01-08T09:53:43;9.00;99.90
32348;DHT22;18821;44.800;10.326;2023-01-08T09:56:17;9.00;99.90
32348;DHT22;18821;44.800;10.326;2023-01-08T09:58:44;9.00;99.90
32348;DHT22;18821;44.800;10.326;2023-01-08T10:01:17;9.10;99.90
32348;DHT22;18821;44.800;10.326;2023-01-08T10:06:14;9.10;99.90
32348;DHT22;18821;44.800;10.326;2023-01-08T10:08:40;9.10;99.90
32348;DHT22;18821;44.800;10.326;2023-01-08T10:11:07;9.20;99.90
32348;DHT22;18821;44.800;10.326;2023-01-08T10:13:37;9.10;99.90
32348;DHT22;18821;44.800;10.326;2023-01-08T10:16:07;9.20;99.90
32348;DHT22;18821;44.800;10.326;2023-01-08T10:18:34;9.10;99.90
32348;DHT22;18821;44.800;10.326;2023-01-08T10:21:00;9.10;99.90
32348;DHT22;18821;44.800;10.326;2023-01-08T10:23:26;9.10;99.90
32348;DHT22;18821;44.800;10.326;2023-01-08T10:25:57;9.00;99.90
32348;DHT22;18821;44.800;10.326;2023-01-08T10:28:32;8.90;99.90
32348;DHT22;18821;44.800;10.326;2023-01-08T10:31:05;8.90;99.90
32348;DHT22;18821;44.800;10.326;2023-01-08T10:33:48;9.00;99.90
32348;DHT22;18821;44.800;10.326;2023-01-08T10:36:17;9.00;99.90
32348;DHT22;18821;44.800;10.326;2023-01-08T10:39:00;9.00;99.90
32348;DHT22;18821;44.800;10.326;2023-01-08T10:41:27;9.10;99.90
32348;DHT22;18821;44.800;10.326;2023-01-08T10:43:58;9.10;99.90
32348;DHT22;18821;44.800;10.326;2023-01-08T10:46:40;9.10;99.90
32348;DHT22;18821;44.800;10.326;2023-01-08T10:49:18;9.00;99.90
32348;DHT22;18821;44.800;10.326;2023-01-08T10:51:51;9.10;99.90
32348;DHT22;18821;44.800;10.326;2023-01-08T10:56:51;9.10;99.90
32348;DHT22;18821;44.800;10.326;2023-01-08T10:59:18;9.10;99.90
32348;DHT22;18821;44.800;10.326;2023-01-08T11:01:49;9.10;99.90
32348;DHT22;18821;44.800;10.326;2023-01-08T11:04:28;9.10;99.90
32348;DHT22;18821;44.800;10.326;2023-01-08T11:06:54;9.10;99.90
32348;DHT22;18821;44.800;10.326;2023-01-08T11:09:29;9.00;99.90
32348;DHT22;18821;44.800;10.326;2023-01-08T11:11:56;9.00;99.90
32348;DHT22;18821;44.800;10.326;2023-01-08T11:14:29;9.00;99.90
32348;DHT22;18821;44.800;10.326;2023-01-08T11:16:56;9.00;99.90
32348;DHT22;18821;44.800;10.326;2023-01-08T11:19:25;9.00;99.90
32348;DHT22;18821;44.800;10.326;2023-01-08T11:22:17;9.00;99.90
32348;DHT22;18821;44.800;10.326;2023-01-08T11:24:45;9.00;99.90
32348;DHT22;18821;44.800;10.326;2023-01-08T11:27:30;9.00;99.90
32348;DHT22;18821;44.800;10.326;2023-01-08T11:30:05;9.10;99.90
32348;DHT22;18821;44.800;10.326;2023-01-08T11:38:22;9.00;99.90
32348;DHT22;18821;44.800;10.326;2023-01-08T11:40:49;9.00;99.90
32348;DHT22;18821;44.800;10.326;2023-01-08T11:43:24;9.10;99.90
32348;DHT22;18821;44.800;10.326;2023-01-08T11:57:16;9.00;99.90
32348;DHT22;18821;44.800;10.326;2023-01-08T12:00:25;9.00;99.90
32348;DHT22;18821;44.800;10.326;2023-01-08T12:03:22;9.10;99.90
32348;DHT22;18821;44.800;10.326;2023-01-08T12:11:30;9.20;99.90
32348;DHT22;18821;44.800;10.326;2023-01-08T12:22:19;9.20;99.90
32348;DHT22;18821;44.800;10.326;2023-01-08T12:36:07;9.00;99.90
32348;DHT22;18821;44.800;10.326;2023-01-08T12:38:36;9.00;99.90
32348;DHT22;18821;44.800;10.326;2023-01-08T12:41:10;8.90;99.90
32348;DHT22;18821;44.800;10.326;2023-01-08T12:46:15;9.00;99.90
32348;DHT22;18821;44.800;10.326;2023-01-08T12:48:43;9.00;99.90
32348;DHT22;18821;44.800;10.326;2023-01-08T12:51:15;9.00;99.90
32348;DHT22;18821;44.800;10.326;2023-01-08T12:53:55;8.90;99.90
32348;DHT22;18821;44.800;10.326;2023-01-08T13:04:41;8.80;99.90
32348;DHT22;18821;44.800;10.326;2023-01-08T13:07:24;8.80;99.90
32348;DHT22;18821;44.800;10.326;2023-01-08T13:09:56;8.90;99.90
32348;DHT22;18821;44.800;10.326;2023-01-08T13:12:32;8.80;99.90
32348;DHT22;18821;44.800;10.326;2023-01-08T13:14:59;8.70;99.90
32348;DHT22;18821;44.800;10.326;2023-01-08T13:17:26;8.60;99.90
32348;DHT22;18821;44.800;10.326;2023-01-08T13:19:54;8.70;99.90
32348;DHT22;18821;44.800;10.326;2023-01-08T13:22:29;8.70;99.90
32348;DHT22;18821;44.800;10.326;2023-01-08T13:27:40;8.70;99.90
32348;DHT22;18821;44.800;10.326;2023-01-08T13:36:28;8.60;99.90
32348;DHT22;18821;44.800;10.326;2023-01-08T13:44:25;8.60;99.90
32348;DHT22;18821;44.800;10.326;2023-01-08T13:46:57;8.60;99.90
32348;DHT22;18821;44.800;10.326;2023-01-08T13:49:33;8.60;99.90
32348;DHT22;18821;44.800;10.326;2023-01-08T13:52:00;8.60;99.90
32348;DHT22;18821;44.800;10.326;2023-01-08T13:54:36;8.50;99.90
32348;DHT22;18821;44.800;10.326;2023-01-08T13:57:14;8.60;99.90
32348;DHT22;18821;44.800;10.326;2023-01-08T13:59:47;8.60;99.90
32348;DHT22;18821;44.800;10.326;2023-01-08T14:04:52;8.60;99.90
32348;DHT22;18821;44.800;10.326;2023-01-08T14:07:18;8.60;99.90
32348;DHT22;18821;44.800;10.326;2023-01-08T14:09:44;8.60;99.90
32348;DHT22;18821;44.800;10.326;2023-01-08T14:12:12;8.60;99.90
32348;DHT22;18821;44.800;10.326;2023-01-08T14:14:42;8.60;99.90
32348;DHT22;18821;44.800;10.326;2023-01-08T14:17:15;8.70;99.90
32348;DHT22;18821;44.800;10.326;2023-01-08T14:19:42;8.60;99.90
32348;DHT22;18821;44.800;10.326;2023-01-08T14:22:15;8.60;99.90
32348;DHT22;18821;44.800;10.326;2023-01-08T14:24:42;8.70;99.90
32348;DHT22;18821;44.800;10.326;2023-01-08T14:27:20;8.70;99.90
32348;DHT22;18821;44.800;10.326;2023-01-08T14:29:46;8.70;99.90
32348;DHT22;18821;44.800;10.326;2023-01-08T14:32:18;8.70;99.90
32348;DHT22;18821;44.800;10.326;2023-01-08T14:34:45;8.70;99.90
32348;DHT22;18821;44.800;10.326;2023-01-08T14:37:13;8.70;99.90
32348;DHT22;18821;44.800;10.326;2023-01-08T14:39:39;8.70;99.90
32348;DHT22;18821;44.800;10.326;2023-01-08T14:42:25;8.60;99.90
32348;DHT22;18821;44.800;10.326;2023-01-08T14:45:28;8.50;99.90
32348;DHT22;18821;44.800;10.326;2023-01-08T14:48:00;8.40;99.90
32348;DHT22;18821;44.800;10.326;2023-01-08T14:50:35;8.40;99.90
32348;DHT22;18821;44.800;10.326;2023-01-08T14:53:24;8.40;99.90
32348;DHT22;18821;44.800;10.326;2023-01-08T14:55:53;8.40;99.90
32348;DHT22;18821;44.800;10.326;2023-01-08T14:58:23;8.50;99.90
32348;DHT22;18821;44.800;10.326;2023-01-08T15:00:53;8.40;99.90
32348;DHT22;18821;44.800;10.326;2023-01-08T15:05:55;8.40;99.90
32348;DHT22;18821;44.800;10.326;2023-01-08T15:08:25;8.40;99.90
32348;DHT22;18821;44.800;10.326;2023-01-08T15:13:49;8.40;99.90
32348;DHT22;18821;44.800;10.326;2023-01-08T15:18:56;8.30;99.90
32348;DHT22;18821;44.800;10.326;2023-01-08T15:21:25;8.30;99.90
32348;DHT22;18821;44.800;10.326;2023-01-08T15:23:53;8.30;99.90
32348;DHT22;18821;44.800;10.326;2023-01-08T15:26:21;8.30;99.90
32348;DHT22;18821;44.800;10.326;2023-01-08T15:28:54;8.30;99.90
32348;DHT22;18821;44.800;10.326;2023-01-08T15:31:45;8.20;99.90
32348;DHT22;18821;44.800;10.326;2023-01-08T15:34:12;8.20;99.90
32348;DHT22;18821;44.800;10.326;2023-01-08T15:36:38;8.20;99.90
32348;DHT22;18821;44.800;10.326;2023-01-08T15:39:04;8.20;99.90
32348;DHT22;18821;44.800;10.326;2023-01-08T15:41:36;8.20;99.90
32348;DHT22;18821;44.800;10.326;2023-01-08T15:44:21;8.20;99.90
32348;DHT22;18821;44.800;10.326;2023-01-08T15:46:47;8.20;99.90
32348;DHT22;18821;44.800;10.326;2023-01-08T15:49:13;8.20;99.90
32348;DHT22;18821;44.800;10.326;2023-01-08T15:51:51;8.20;99.90
32348;DHT22;18821;44.800;10.326;2023-01-08T15:54:18;8.10;99.90
32348;DHT22;18821;44.800;10.326;2023-01-08T15:56:45;8.10;99.90
32348;DHT22;18821;44.800;10.326;2023-01-08T15:59:11;8.20;99.90
32348;DHT22;18821;44.800;10.326;2023-01-08T16:01:37;8.10;99.90
32348;DHT22;18821;44.800;10.326;2023-01-08T16:04:03;8.10;99.90
32348;DHT22;18821;44.800;10.326;2023-01-08T16:06:30;8.10;99.90
32348;DHT22;18821;44.800;10.326;2023-01-08T16:08:57;8.10;99.90
32348;DHT22;18821;44.800;10.326;2023-01-08T16:11:25;8.10;99.90
32348;DHT22;18821;44.800;10.326;2023-01-08T16:13:51;8.10;99.90
32348;DHT22;18821;44.800;10.326;2023-01-08T16:16:18;8.10;99.90
32348;DHT22;18821;44.800;10.326;2023-01-08T16:18:45;8.10;99.90
32348;DHT22;18821;44.800;10.326;2023-01-08T16:21:11;8.10;99.90
32348;DHT22;18821;44.800;10.326;2023-01-08T16:23:38;8.10;99.90
32348;DHT22;18821;44.800;10.326;2023-01-08T16:26:05;8.10;99.90
32348;DHT22;18821;44.800;10.326;2023-01-08T16:28:32;8.10;99.90
32348;DHT22;18821;44.800;10.326;2023-01-08T16:30:58;8.10;99.90
32348;DHT22;18821;44.800;10.326;2023-01-08T16:33:24;8.20;99.90
32348;DHT22;18821;44.800;10.326;2023-01-08T16:36:02;8.20;99.90
32348;DHT22;18821;44.800;10.326;2023-01-08T16:38:29;8.20;99.90
32348;DHT22;18821;44.800;10.326;2023-01-08T16:40:55;8.20;99.90
32348;DHT22;18821;44.800;10.326;2023-01-08T16:43:27;8.10;99.90
32348;DHT22;18821;44.800;10.326;2023-01-08T16:45:53;8.10;99.90
32348;DHT22;18821;44.800;10.326;2023-01-08T16:48:20;8.10;99.90
32348;DHT22;18821;44.800;10.326;2023-01-08T16:50:47;8.10;99.90
32348;DHT22;18821;44.800;10.326;2023-01-08T16:53:14;8.10;99.90
32348;DHT22;18821;44.800;10.326;2023-01-08T16:55:42;8.00;99.90
32348;DHT22;18821;44.800;10.326;2023-01-08T16:58:08;8.00;99.90
32348;DHT22;18821;44.800;10.326;2023-01-08T17:00:35;7.90;99.90
32348;DHT22;18821;44.800;10.326;2023-01-08T17:03:03;8.00;99.90
32348;DHT22;18821;44.800;10.326;2023-01-08T17:05:30;8.00;99.90
32348;DHT22;18821;44.800;10.326;2023-01-08T17:07:59;7.90;99.90
32348;DHT22;18821;44.800;10.326;2023-01-08T17:10:25;8.00;99.90
32348;DHT22;18821;44.800;10.326;2023-01-08T17:12:51;8.00;99.90
32348;DHT22;18821;44.800;10.326;2023-01-08T17:15:17;8.00;99.90
32348;DHT22;18821;44.800;10.326;2023-01-08T17:17:43;8.00;99.90
32348;DHT22;18821;44.800;10.326;2023-01-08T17:20:10;8.00;99.90
32348;DHT22;18821;44.800;10.326;2023-01-08T17:22:36;8.00;99.90
32348;DHT22;18821;44.800;10.326;2023-01-08T17:25:02;8.00;99.90